PWSweather.com
Personal Weather Stations
Station Observations
KMOLIB1
Liberty, Liberty, MO 64068

LibertyLiberty, MO 64068

Lat: 39.24, Lon: -94.45

Elevation: 866

Station Type:

High Low Average
Temperature 96.0°F35.6°C 71.0°F21.7°C 79.7°F26.5°C
Dew Point -19.6°F-28.7°C -34.5°F-36.9°C -29.3°F-34.1°C
Winds 17.0 mph 27.4 kmh Calm Calm 2.0 mph SW3.2 kmh SW
Wind Gusts 28.0 mph45.1 kmh 2.0 mph3.2 kmh 13.0 mph20.9 kmh
Humidity 1% 1% 1%
Pressure 210.49 in7128.0 mb 210.35 in7123.3 mb -
Precipitation 0.00 in0.0 mm - -
Hour Temp Dew Point Humidity Winds Wind Gusts Pressure Precip Precip Rate Daily Precip Total
12:00 AM 75.0°F23.9°C -32.1°F-35.6°C 1% Calm Calm 6.0 mph9.7 kmh 210.43 in7126.0 mb 0.00 in0.0 mm 0.00 in0.0 mm 0.00 in0.0 mm
12:05 AM 75.0°F23.9°C -32.1°F-35.6°C 1% Calm Calm 6.0 mph9.7 kmh 210.44 in7126.3 mb 0.00 in0.0 mm 0.00 in0.0 mm 0.00 in0.0 mm
12:10 AM 75.0°F23.9°C -32.1°F-35.6°C 1% 1.0 mph SE1.6 kmh SE 6.0 mph9.7 kmh 210.44 in7126.3 mb 0.00 in0.0 mm 0.00 in0.0 mm 0.00 in0.0 mm
12:15 AM 75.0°F23.9°C -32.1°F-35.6°C 1% Calm Calm 6.0 mph9.7 kmh 210.44 in7126.3 mb 0.00 in0.0 mm 0.00 in0.0 mm 0.00 in0.0 mm
12:20 AM 75.0°F23.9°C -32.1°F-35.6°C 1% 1.0 mph SE1.6 kmh SE 6.0 mph9.7 kmh 210.44 in7126.3 mb 0.00 in0.0 mm 0.00 in0.0 mm 0.00 in0.0 mm
12:25 AM 75.0°F23.9°C -32.1°F-35.6°C 1% 1.0 mph SE1.6 kmh SE 6.0 mph9.7 kmh 210.44 in7126.3 mb 0.00 in0.0 mm 0.00 in0.0 mm 0.00 in0.0 mm
12:30 AM 75.0°F23.9°C -32.1°F-35.6°C 1% 1.0 mph SE1.6 kmh SE 6.0 mph9.7 kmh 210.44 in7126.3 mb 0.00 in0.0 mm 0.00 in0.0 mm 0.00 in0.0 mm
12:35 AM 75.0°F23.9°C -32.1°F-35.6°C 1% Calm Calm 6.0 mph9.7 kmh 210.43 in7126.0 mb 0.00 in0.0 mm 0.00 in0.0 mm 0.00 in0.0 mm
12:40 AM 75.0°F23.9°C -32.1°F-35.6°C 1% 1.0 mph SE1.6 kmh SE 6.0 mph9.7 kmh 210.43 in7126.0 mb 0.00 in0.0 mm 0.00 in0.0 mm 0.00 in0.0 mm
12:45 AM 75.0°F23.9°C -32.1°F-35.6°C 1% 1.0 mph SE1.6 kmh SE 6.0 mph9.7 kmh 210.43 in7126.0 mb 0.00 in0.0 mm 0.00 in0.0 mm 0.00 in0.0 mm
12:50 AM 74.0°F23.3°C -32.7°F-35.9°C 1% Calm Calm 6.0 mph9.7 kmh 210.43 in7126.0 mb 0.00 in0.0 mm 0.00 in0.0 mm 0.00 in0.0 mm
12:55 AM 74.0°F23.3°C -32.7°F-35.9°C 1% 1.0 mph SE1.6 kmh SE 6.0 mph9.7 kmh 210.43 in7126.0 mb 0.00 in0.0 mm 0.00 in0.0 mm 0.00 in0.0 mm
01:00 AM 74.0°F23.3°C -32.7°F-35.9°C 1% Calm Calm 6.0 mph9.7 kmh 210.43 in7126.0 mb 0.00 in0.0 mm 0.00 in0.0 mm 0.00 in0.0 mm
01:05 AM 74.0°F23.3°C -32.7°F-35.9°C 1% Calm Calm 6.0 mph9.7 kmh 210.43 in7126.0 mb 0.00 in0.0 mm 0.00 in0.0 mm 0.00 in0.0 mm
01:10 AM 74.0°F23.3°C -32.7°F-35.9°C 1% Calm Calm 6.0 mph9.7 kmh 210.43 in7126.0 mb 0.00 in0.0 mm 0.00 in0.0 mm 0.00 in0.0 mm
01:15 AM 74.0°F23.3°C -32.7°F-35.9°C 1% Calm Calm 6.0 mph9.7 kmh 210.43 in7126.0 mb 0.00 in0.0 mm 0.00 in0.0 mm 0.00 in0.0 mm
01:20 AM 74.0°F23.3°C -32.7°F-35.9°C 1% 1.0 mph E1.6 kmh E 6.0 mph9.7 kmh 210.43 in7126.0 mb 0.00 in0.0 mm 0.00 in0.0 mm 0.00 in0.0 mm
01:25 AM 74.0°F23.3°C -32.7°F-35.9°C 1% 1.0 mph SE1.6 kmh SE 6.0 mph9.7 kmh 210.44 in7126.3 mb 0.00 in0.0 mm 0.00 in0.0 mm 0.00 in0.0 mm
01:30 AM 74.0°F23.3°C -32.7°F-35.9°C 1% Calm Calm 6.0 mph9.7 kmh 210.44 in7126.3 mb 0.00 in0.0 mm 0.00 in0.0 mm 0.00 in0.0 mm
01:35 AM 74.0°F23.3°C -32.7°F-35.9°C 1% Calm Calm 6.0 mph9.7 kmh 210.44 in7126.3 mb 0.00 in0.0 mm 0.00 in0.0 mm 0.00 in0.0 mm
01:40 AM 73.0°F22.8°C -33.3°F-36.3°C 1% Calm Calm 6.0 mph9.7 kmh 210.44 in7126.3 mb 0.00 in0.0 mm 0.00 in0.0 mm 0.00 in0.0 mm
01:45 AM 73.0°F22.8°C -33.3°F-36.3°C 1% Calm Calm 6.0 mph9.7 kmh 210.44 in7126.3 mb 0.00 in0.0 mm 0.00 in0.0 mm 0.00 in0.0 mm
01:50 AM 73.0°F22.8°C -33.3°F-36.3°C 1% Calm Calm 6.0 mph9.7 kmh 210.44 in7126.3 mb 0.00 in0.0 mm 0.00 in0.0 mm 0.00 in0.0 mm
01:55 AM 73.0°F22.8°C -33.3°F-36.3°C 1% 1.0 mph ESE1.6 kmh ESE 6.0 mph9.7 kmh 210.44 in7126.3 mb 0.00 in0.0 mm 0.00 in0.0 mm 0.00 in0.0 mm
02:00 AM 73.0°F22.8°C -33.3°F-36.3°C 1% 1.0 mph ESE1.6 kmh ESE 6.0 mph9.7 kmh 210.44 in7126.3 mb 0.00 in0.0 mm 0.00 in0.0 mm 0.00 in0.0 mm
02:05 AM 73.0°F22.8°C -33.3°F-36.3°C 1% 1.0 mph ESE1.6 kmh ESE 6.0 mph9.7 kmh 210.44 in7126.3 mb 0.00 in0.0 mm 0.00 in0.0 mm 0.00 in0.0 mm
02:10 AM 73.0°F22.8°C -33.3°F-36.3°C 1% 2.0 mph ESE3.2 kmh ESE 6.0 mph9.7 kmh 210.44 in7126.3 mb 0.00 in0.0 mm 0.00 in0.0 mm 0.00 in0.0 mm
02:15 AM 73.0°F22.8°C -33.3°F-36.3°C 1% Calm Calm 6.0 mph9.7 kmh 210.44 in7126.3 mb 0.00 in0.0 mm 0.00 in0.0 mm 0.00 in0.0 mm
02:20 AM 73.0°F22.8°C -33.3°F-36.3°C 1% 1.0 mph ESE1.6 kmh ESE 6.0 mph9.7 kmh 210.44 in7126.3 mb 0.00 in0.0 mm 0.00 in0.0 mm 0.00 in0.0 mm
02:25 AM 74.0°F23.3°C -32.7°F-35.9°C 1% 1.0 mph S1.6 kmh S 6.0 mph9.7 kmh 210.43 in7126.0 mb 0.00 in0.0 mm 0.00 in0.0 mm 0.00 in0.0 mm
02:30 AM 74.0°F23.3°C -32.7°F-35.9°C 1% Calm Calm 6.0 mph9.7 kmh 210.43 in7126.0 mb 0.00 in0.0 mm 0.00 in0.0 mm 0.00 in0.0 mm
02:35 AM 74.0°F23.3°C -32.7°F-35.9°C 1% 2.0 mph S3.2 kmh S 6.0 mph9.7 kmh 210.43 in7126.0 mb 0.00 in0.0 mm 0.00 in0.0 mm 0.00 in0.0 mm
02:40 AM 75.0°F23.9°C -32.1°F-35.6°C 1% Calm Calm 6.0 mph9.7 kmh 210.43 in7126.0 mb 0.00 in0.0 mm 0.00 in0.0 mm 0.00 in0.0 mm
02:45 AM 74.0°F23.3°C -32.7°F-35.9°C 1% Calm Calm 6.0 mph9.7 kmh 210.42 in7125.6 mb 0.00 in0.0 mm 0.00 in0.0 mm 0.00 in0.0 mm
02:50 AM 74.0°F23.3°C -32.7°F-35.9°C 1% Calm Calm 6.0 mph9.7 kmh 210.42 in7125.6 mb 0.00 in0.0 mm 0.00 in0.0 mm 0.00 in0.0 mm
02:55 AM 73.0°F22.8°C -33.3°F-36.3°C 1% Calm Calm 6.0 mph9.7 kmh 210.43 in7126.0 mb 0.00 in0.0 mm 0.00 in0.0 mm 0.00 in0.0 mm
03:00 AM 73.0°F22.8°C -33.3°F-36.3°C 1% Calm Calm 6.0 mph9.7 kmh 210.43 in7126.0 mb 0.00 in0.0 mm 0.00 in0.0 mm 0.00 in0.0 mm
03:05 AM 73.0°F22.8°C -33.3°F-36.3°C 1% 1.0 mph SE1.6 kmh SE 6.0 mph9.7 kmh 210.43 in7126.0 mb 0.00 in0.0 mm 0.00 in0.0 mm 0.00 in0.0 mm
03:10 AM 73.0°F22.8°C -33.3°F-36.3°C 1% Calm Calm 6.0 mph9.7 kmh 210.43 in7126.0 mb 0.00 in0.0 mm 0.00 in0.0 mm 0.00 in0.0 mm
03:15 AM 72.0°F22.2°C -33.9°F-36.6°C 1% 1.0 mph SE1.6 kmh SE 6.0 mph9.7 kmh 210.44 in7126.3 mb 0.00 in0.0 mm 0.00 in0.0 mm 0.00 in0.0 mm
03:20 AM 72.0°F22.2°C -33.9°F-36.6°C 1% 3.0 mph SE4.8 kmh SE 6.0 mph9.7 kmh 210.44 in7126.3 mb 0.00 in0.0 mm 0.00 in0.0 mm 0.00 in0.0 mm
03:25 AM 72.0°F22.2°C -33.9°F-36.6°C 1% 1.0 mph SE1.6 kmh SE 6.0 mph9.7 kmh 210.44 in7126.3 mb 0.00 in0.0 mm 0.00 in0.0 mm 0.00 in0.0 mm
03:30 AM 72.0°F22.2°C -33.9°F-36.6°C 1% 3.0 mph SE4.8 kmh SE 6.0 mph9.7 kmh 210.44 in7126.3 mb 0.00 in0.0 mm 0.00 in0.0 mm 0.00 in0.0 mm
03:35 AM 72.0°F22.2°C -33.9°F-36.6°C 1% 3.0 mph SSE4.8 kmh SSE 6.0 mph9.7 kmh 210.44 in7126.3 mb 0.00 in0.0 mm 0.00 in0.0 mm 0.00 in0.0 mm
03:40 AM 72.0°F22.2°C -33.9°F-36.6°C 1% 3.0 mph SSE4.8 kmh SSE 6.0 mph9.7 kmh 210.44 in7126.3 mb 0.00 in0.0 mm 0.00 in0.0 mm 0.00 in0.0 mm
03:45 AM 72.0°F22.2°C -33.9°F-36.6°C 1% 2.0 mph SSE3.2 kmh SSE 6.0 mph9.7 kmh 210.43 in7126.0 mb 0.00 in0.0 mm 0.00 in0.0 mm 0.00 in0.0 mm
03:50 AM 72.0°F22.2°C -33.9°F-36.6°C 1% Calm Calm 6.0 mph9.7 kmh 210.43 in7126.0 mb 0.00 in0.0 mm 0.00 in0.0 mm 0.00 in0.0 mm
03:55 AM 72.0°F22.2°C -33.9°F-36.6°C 1% 1.0 mph SSW1.6 kmh SSW 6.0 mph9.7 kmh 210.43 in7126.0 mb 0.00 in0.0 mm 0.00 in0.0 mm 0.00 in0.0 mm
04:00 AM 72.0°F22.2°C -33.9°F-36.6°C 1% Calm Calm 6.0 mph9.7 kmh 210.43 in7126.0 mb 0.00 in0.0 mm 0.00 in0.0 mm 0.00 in0.0 mm
04:05 AM 72.0°F22.2°C -33.9°F-36.6°C 1% 1.0 mph S1.6 kmh S 6.0 mph9.7 kmh 210.43 in7126.0 mb 0.00 in0.0 mm 0.00 in0.0 mm 0.00 in0.0 mm
04:10 AM 72.0°F22.2°C -33.9°F-36.6°C 1% Calm Calm 6.0 mph9.7 kmh 210.43 in7126.0 mb 0.00 in0.0 mm 0.00 in0.0 mm 0.00 in0.0 mm
04:15 AM 72.0°F22.2°C -33.9°F-36.6°C 1% Calm Calm 6.0 mph9.7 kmh 210.43 in7126.0 mb 0.00 in0.0 mm 0.00 in0.0 mm 0.00 in0.0 mm
04:20 AM 71.0°F21.7°C -34.5°F-36.9°C 1% 1.0 mph S1.6 kmh S 6.0 mph9.7 kmh 210.43 in7126.0 mb 0.00 in0.0 mm 0.00 in0.0 mm 0.00 in0.0 mm
04:25 AM 71.0°F21.7°C -34.5°F-36.9°C 1% Calm Calm 6.0 mph9.7 kmh 210.43 in7126.0 mb 0.00 in0.0 mm 0.00 in0.0 mm 0.00 in0.0 mm
04:30 AM 71.0°F21.7°C -34.5°F-36.9°C 1% Calm Calm 6.0 mph9.7 kmh 210.43 in7126.0 mb 0.00 in0.0 mm 0.00 in0.0 mm 0.00 in0.0 mm
04:35 AM 71.0°F21.7°C -34.5°F-36.9°C 1% Calm Calm 6.0 mph9.7 kmh 210.44 in7126.3 mb 0.00 in0.0 mm 0.00 in0.0 mm 0.00 in0.0 mm
04:40 AM 71.0°F21.7°C -34.5°F-36.9°C 1% Calm Calm 6.0 mph9.7 kmh 210.44 in7126.3 mb 0.00 in0.0 mm 0.00 in0.0 mm 0.00 in0.0 mm
04:45 AM 72.0°F22.2°C -33.9°F-36.6°C 1% Calm Calm 6.0 mph9.7 kmh 210.44 in7126.3 mb 0.00 in0.0 mm 0.00 in0.0 mm 0.00 in0.0 mm
04:50 AM 72.0°F22.2°C -33.9°F-36.6°C 1% Calm Calm 6.0 mph9.7 kmh 210.44 in7126.3 mb 0.00 in0.0 mm 0.00 in0.0 mm 0.00 in0.0 mm
04:55 AM 72.0°F22.2°C -33.9°F-36.6°C 1% Calm Calm 6.0 mph9.7 kmh 210.44 in7126.3 mb 0.00 in0.0 mm 0.00 in0.0 mm 0.00 in0.0 mm
05:00 AM 72.0°F22.2°C -33.9°F-36.6°C 1% Calm Calm 6.0 mph9.7 kmh 210.44 in7126.3 mb 0.00 in0.0 mm 0.00 in0.0 mm 0.00 in0.0 mm
05:05 AM 72.0°F22.2°C -33.9°F-36.6°C 1% Calm Calm 6.0 mph9.7 kmh 210.44 in7126.3 mb 0.00 in0.0 mm 0.00 in0.0 mm 0.00 in0.0 mm
05:10 AM 72.0°F22.2°C -33.9°F-36.6°C 1% Calm Calm 6.0 mph9.7 kmh 210.44 in7126.3 mb 0.00 in0.0 mm 0.00 in0.0 mm 0.00 in0.0 mm
05:15 AM 71.0°F21.7°C -34.5°F-36.9°C 1% Calm Calm 6.0 mph9.7 kmh 210.44 in7126.3 mb 0.00 in0.0 mm 0.00 in0.0 mm 0.00 in0.0 mm
05:20 AM 71.0°F21.7°C -34.5°F-36.9°C 1% Calm Calm 6.0 mph9.7 kmh 210.44 in7126.3 mb 0.00 in0.0 mm 0.00 in0.0 mm 0.00 in0.0 mm
05:25 AM 71.0°F21.7°C -34.5°F-36.9°C 1% Calm Calm 6.0 mph9.7 kmh 210.45 in7126.7 mb 0.00 in0.0 mm 0.00 in0.0 mm 0.00 in0.0 mm
05:30 AM 71.0°F21.7°C -34.5°F-36.9°C 1% Calm Calm 6.0 mph9.7 kmh 210.45 in7126.7 mb 0.00 in0.0 mm 0.00 in0.0 mm 0.00 in0.0 mm
05:35 AM 71.0°F21.7°C -34.5°F-36.9°C 1% Calm Calm 6.0 mph9.7 kmh 210.45 in7126.7 mb 0.00 in0.0 mm 0.00 in0.0 mm 0.00 in0.0 mm
05:40 AM 71.0°F21.7°C -34.5°F-36.9°C 1% Calm Calm 6.0 mph9.7 kmh 210.45 in7126.7 mb 0.00 in0.0 mm 0.00 in0.0 mm 0.00 in0.0 mm
05:45 AM 71.0°F21.7°C -34.5°F-36.9°C 1% Calm Calm 6.0 mph9.7 kmh 210.45 in7126.7 mb 0.00 in0.0 mm 0.00 in0.0 mm 0.00 in0.0 mm
05:50 AM 71.0°F21.7°C -34.5°F-36.9°C 1% Calm Calm 6.0 mph9.7 kmh 210.45 in7126.7 mb 0.00 in0.0 mm 0.00 in0.0 mm 0.00 in0.0 mm
05:55 AM 71.0°F21.7°C -34.5°F-36.9°C 1% Calm Calm 6.0 mph9.7 kmh 210.46 in7127.0 mb 0.00 in0.0 mm 0.00 in0.0 mm 0.00 in0.0 mm
06:00 AM 71.0°F21.7°C -34.5°F-36.9°C 1% Calm Calm 6.0 mph9.7 kmh 210.46 in7127.0 mb 0.00 in0.0 mm 0.00 in0.0 mm 0.00 in0.0 mm
06:05 AM 72.0°F22.2°C -33.9°F-36.6°C 1% Calm Calm 6.0 mph9.7 kmh 210.45 in7126.7 mb 0.00 in0.0 mm 0.00 in0.0 mm 0.00 in0.0 mm
06:10 AM 72.0°F22.2°C -33.9°F-36.6°C 1% Calm Calm 6.0 mph9.7 kmh 210.45 in7126.7 mb 0.00 in0.0 mm 0.00 in0.0 mm 0.00 in0.0 mm
06:15 AM 73.0°F22.8°C -33.3°F-36.3°C 1% Calm Calm 6.0 mph9.7 kmh 210.45 in7126.7 mb 0.00 in0.0 mm 0.00 in0.0 mm 0.00 in0.0 mm
06:20 AM 73.0°F22.8°C -33.3°F-36.3°C 1% Calm Calm 6.0 mph9.7 kmh 210.45 in7126.7 mb 0.00 in0.0 mm 0.00 in0.0 mm 0.00 in0.0 mm
06:30 AM 74.0°F23.3°C -32.7°F-35.9°C 1% 1.0 mph SW1.6 kmh SW 6.0 mph9.7 kmh 210.45 in7126.7 mb 0.00 in0.0 mm 0.00 in0.0 mm 0.00 in0.0 mm
06:35 AM 74.0°F23.3°C -32.7°F-35.9°C 1% Calm Calm 6.0 mph9.7 kmh 210.46 in7127.0 mb 0.00 in0.0 mm 0.00 in0.0 mm 0.00 in0.0 mm
06:40 AM 74.0°F23.3°C -32.7°F-35.9°C 1% Calm Calm 6.0 mph9.7 kmh 210.46 in7127.0 mb 0.00 in0.0 mm 0.00 in0.0 mm 0.00 in0.0 mm
06:45 AM 74.0°F23.3°C -32.7°F-35.9°C 1% 2.0 mph SW3.2 kmh SW 6.0 mph9.7 kmh 210.46 in7127.0 mb 0.00 in0.0 mm 0.00 in0.0 mm 0.00 in0.0 mm
06:50 AM 74.0°F23.3°C -32.7°F-35.9°C 1% 3.0 mph SW4.8 kmh SW 6.0 mph9.7 kmh 210.46 in7127.0 mb 0.00 in0.0 mm 0.00 in0.0 mm 0.00 in0.0 mm
06:55 AM 74.0°F23.3°C -32.7°F-35.9°C 1% 4.0 mph SW6.4 kmh SW 6.0 mph9.7 kmh 210.46 in7127.0 mb 0.00 in0.0 mm 0.00 in0.0 mm 0.00 in0.0 mm
07:00 AM 74.0°F23.3°C -32.7°F-35.9°C 1% 1.0 mph SW1.6 kmh SW 6.0 mph9.7 kmh 210.46 in7127.0 mb 0.00 in0.0 mm 0.00 in0.0 mm 0.00 in0.0 mm
07:05 AM 74.0°F23.3°C -32.7°F-35.9°C 1% 2.0 mph SW3.2 kmh SW 6.0 mph9.7 kmh 210.46 in7127.0 mb 0.00 in0.0 mm 0.00 in0.0 mm 0.00 in0.0 mm
07:10 AM 74.0°F23.3°C -32.7°F-35.9°C 1% Calm Calm 6.0 mph9.7 kmh 210.46 in7127.0 mb 0.00 in0.0 mm 0.00 in0.0 mm 0.00 in0.0 mm
07:15 AM 74.0°F23.3°C -32.7°F-35.9°C 1% 1.0 mph W1.6 kmh W 6.0 mph9.7 kmh 210.46 in7127.0 mb 0.00 in0.0 mm 0.00 in0.0 mm 0.00 in0.0 mm
07:20 AM 74.0°F23.3°C -32.7°F-35.9°C 1% 1.0 mph W1.6 kmh W 6.0 mph9.7 kmh 210.46 in7127.0 mb 0.00 in0.0 mm 0.00 in0.0 mm 0.00 in0.0 mm
07:25 AM 75.0°F23.9°C -32.1°F-35.6°C 1% Calm Calm 6.0 mph9.7 kmh 210.46 in7127.0 mb 0.00 in0.0 mm 0.00 in0.0 mm 0.00 in0.0 mm
07:30 AM 75.0°F23.9°C -32.1°F-35.6°C 1% Calm Calm 6.0 mph9.7 kmh 210.46 in7127.0 mb 0.00 in0.0 mm 0.00 in0.0 mm 0.00 in0.0 mm
07:35 AM 75.0°F23.9°C -32.1°F-35.6°C 1% 1.0 mph W1.6 kmh W 6.0 mph9.7 kmh 210.46 in7127.0 mb 0.00 in0.0 mm 0.00 in0.0 mm 0.00 in0.0 mm
07:40 AM 75.0°F23.9°C -32.1°F-35.6°C 1% Calm Calm 6.0 mph9.7 kmh 210.46 in7127.0 mb 0.00 in0.0 mm 0.00 in0.0 mm 0.00 in0.0 mm
07:45 AM 75.0°F23.9°C -32.1°F-35.6°C 1% 3.0 mph S4.8 kmh S 6.0 mph9.7 kmh 210.47 in7127.3 mb 0.00 in0.0 mm 0.00 in0.0 mm 0.00 in0.0 mm
07:50 AM 76.0°F24.4°C -31.5°F-35.3°C 1% 3.0 mph NW4.8 kmh NW 6.0 mph9.7 kmh 210.47 in7127.3 mb 0.00 in0.0 mm 0.00 in0.0 mm 0.00 in0.0 mm
07:55 AM 76.0°F24.4°C -31.5°F-35.3°C 1% Calm Calm 6.0 mph9.7 kmh 210.46 in7127.0 mb 0.00 in0.0 mm 0.00 in0.0 mm 0.00 in0.0 mm
08:00 AM 76.0°F24.4°C -31.5°F-35.3°C 1% Calm Calm 6.0 mph9.7 kmh 210.46 in7127.0 mb 0.00 in0.0 mm 0.00 in0.0 mm 0.00 in0.0 mm
08:05 AM 77.0°F25.0°C -30.9°F-34.9°C 1% Calm Calm 6.0 mph9.7 kmh 210.46 in7127.0 mb 0.00 in0.0 mm 0.00 in0.0 mm 0.00 in0.0 mm
08:10 AM 77.0°F25.0°C -30.9°F-34.9°C 1% Calm Calm 6.0 mph9.7 kmh 210.46 in7127.0 mb 0.00 in0.0 mm 0.00 in0.0 mm 0.00 in0.0 mm
08:15 AM 78.0°F25.6°C -30.3°F-34.6°C 1% 1.0 mph W1.6 kmh W 6.0 mph9.7 kmh 210.46 in7127.0 mb 0.00 in0.0 mm 0.00 in0.0 mm 0.00 in0.0 mm
08:20 AM 78.0°F25.6°C -30.3°F-34.6°C 1% Calm Calm 6.0 mph9.7 kmh 210.46 in7127.0 mb 0.00 in0.0 mm 0.00 in0.0 mm 0.00 in0.0 mm
08:25 AM 78.0°F25.6°C -30.3°F-34.6°C 1% 4.0 mph NW6.4 kmh NW 6.0 mph9.7 kmh 210.47 in7127.3 mb 0.00 in0.0 mm 0.00 in0.0 mm 0.00 in0.0 mm
08:30 AM 79.0°F26.1°C -29.7°F-34.3°C 1% 3.0 mph WSW4.8 kmh WSW 6.0 mph9.7 kmh 210.47 in7127.3 mb 0.00 in0.0 mm 0.00 in0.0 mm 0.00 in0.0 mm
08:35 AM 79.0°F26.1°C -29.7°F-34.3°C 1% 3.0 mph SW4.8 kmh SW 6.0 mph9.7 kmh 210.46 in7127.0 mb 0.00 in0.0 mm 0.00 in0.0 mm 0.00 in0.0 mm
08:40 AM 80.0°F26.7°C -29.1°F-33.9°C 1% Calm Calm 6.0 mph9.7 kmh 210.46 in7127.0 mb 0.00 in0.0 mm 0.00 in0.0 mm 0.00 in0.0 mm
08:45 AM 81.0°F27.2°C -28.5°F-33.6°C 1% Calm Calm 6.0 mph9.7 kmh 210.45 in7126.7 mb 0.00 in0.0 mm 0.00 in0.0 mm 0.00 in0.0 mm
08:50 AM 82.0°F27.8°C -27.9°F-33.3°C 1% 3.0 mph W4.8 kmh W 6.0 mph9.7 kmh 210.45 in7126.7 mb 0.00 in0.0 mm 0.00 in0.0 mm 0.00 in0.0 mm
08:55 AM 83.0°F28.3°C -27.3°F-32.9°C 1% 1.0 mph SW1.6 kmh SW 6.0 mph9.7 kmh 210.45 in7126.7 mb 0.00 in0.0 mm 0.00 in0.0 mm 0.00 in0.0 mm
09:00 AM 84.0°F28.9°C -26.7°F-32.6°C 1% 6.0 mph SW9.7 kmh SW 6.0 mph9.7 kmh 210.45 in7126.7 mb 0.00 in0.0 mm 0.00 in0.0 mm 0.00 in0.0 mm
09:05 AM 83.0°F28.3°C -27.3°F-32.9°C 1% Calm Calm 7.0 mph11.3 kmh 210.45 in7126.7 mb 0.00 in0.0 mm 0.00 in0.0 mm 0.00 in0.0 mm
09:10 AM 83.0°F28.3°C -27.3°F-32.9°C 1% Calm Calm 7.0 mph11.3 kmh 210.45 in7126.7 mb 0.00 in0.0 mm 0.00 in0.0 mm 0.00 in0.0 mm
09:15 AM 84.0°F28.9°C -26.7°F-32.6°C 1% 5.0 mph W8.0 kmh W 7.0 mph11.3 kmh 210.45 in7126.7 mb 0.00 in0.0 mm 0.00 in0.0 mm 0.00 in0.0 mm
09:20 AM 85.0°F29.4°C -26.1°F-32.3°C 1% 2.0 mph S3.2 kmh S 7.0 mph11.3 kmh 210.45 in7126.7 mb 0.00 in0.0 mm 0.00 in0.0 mm 0.00 in0.0 mm
09:25 AM 86.0°F30.0°C -25.5°F-31.9°C 1% Calm Calm 7.0 mph11.3 kmh 210.45 in7126.7 mb 0.00 in0.0 mm 0.00 in0.0 mm 0.00 in0.0 mm
09:30 AM 87.0°F30.6°C -24.9°F-31.6°C 1% 7.0 mph NW11.3 kmh NW 8.0 mph12.9 kmh 210.45 in7126.7 mb 0.00 in0.0 mm 0.00 in0.0 mm 0.00 in0.0 mm
09:35 AM 87.0°F30.6°C -24.9°F-31.6°C 1% 4.0 mph NW6.4 kmh NW 8.0 mph12.9 kmh 210.44 in7126.3 mb 0.00 in0.0 mm 0.00 in0.0 mm 0.00 in0.0 mm
09:40 AM 86.0°F30.0°C -25.5°F-31.9°C 1% 10.0 mph NW16.1 kmh NW 10.0 mph16.1 kmh 210.44 in7126.3 mb 0.00 in0.0 mm 0.00 in0.0 mm 0.00 in0.0 mm
09:45 AM 86.0°F30.0°C -25.5°F-31.9°C 1% 4.0 mph NW6.4 kmh NW 10.0 mph16.1 kmh 210.45 in7126.7 mb 0.00 in0.0 mm 0.00 in0.0 mm 0.00 in0.0 mm
09:50 AM 86.0°F30.0°C -25.5°F-31.9°C 1% 4.0 mph SW6.4 kmh SW 10.0 mph16.1 kmh 210.45 in7126.7 mb 0.00 in0.0 mm 0.00 in0.0 mm 0.00 in0.0 mm
09:55 AM 87.0°F30.6°C -24.9°F-31.6°C 1% 1.0 mph SW1.6 kmh SW 10.0 mph16.1 kmh 210.45 in7126.7 mb 0.00 in0.0 mm 0.00 in0.0 mm 0.00 in0.0 mm
10:00 AM 86.0°F30.0°C -25.5°F-31.9°C 1% 3.0 mph NW4.8 kmh NW 10.0 mph16.1 kmh 210.45 in7126.7 mb 0.00 in0.0 mm 0.00 in0.0 mm 0.00 in0.0 mm
10:05 AM 86.0°F30.0°C -25.5°F-31.9°C 1% 2.0 mph SW3.2 kmh SW 10.0 mph16.1 kmh 210.45 in7126.7 mb 0.00 in0.0 mm 0.00 in0.0 mm 0.00 in0.0 mm
10:10 AM 88.0°F31.1°C -24.3°F-31.3°C 1% 1.0 mph N1.6 kmh N 10.0 mph16.1 kmh 210.45 in7126.7 mb 0.00 in0.0 mm 0.00 in0.0 mm 0.00 in0.0 mm
10:15 AM 88.0°F31.1°C -24.3°F-31.3°C 1% 1.0 mph SW1.6 kmh SW 10.0 mph16.1 kmh 210.45 in7126.7 mb 0.00 in0.0 mm 0.00 in0.0 mm 0.00 in0.0 mm
10:20 AM 88.0°F31.1°C -24.3°F-31.3°C 1% Calm Calm 10.0 mph16.1 kmh 210.45 in7126.7 mb 0.00 in0.0 mm 0.00 in0.0 mm 0.00 in0.0 mm
10:25 AM 89.0°F31.7°C -23.7°F-30.9°C 1% 4.0 mph NW6.4 kmh NW 10.0 mph16.1 kmh 210.44 in7126.3 mb 0.00 in0.0 mm 0.00 in0.0 mm 0.00 in0.0 mm
10:30 AM 90.0°F32.2°C -23.2°F-30.7°C 1% 4.0 mph NW6.4 kmh NW 10.0 mph16.1 kmh 210.44 in7126.3 mb 0.00 in0.0 mm 0.00 in0.0 mm 0.00 in0.0 mm
10:35 AM 89.0°F31.7°C -23.7°F-30.9°C 1% 4.0 mph NW6.4 kmh NW 10.0 mph16.1 kmh 210.44 in7126.3 mb 0.00 in0.0 mm 0.00 in0.0 mm 0.00 in0.0 mm
10:40 AM 88.0°F31.1°C -24.3°F-31.3°C 1% 4.0 mph NNE6.4 kmh NNE 10.0 mph16.1 kmh 210.44 in7126.3 mb 0.00 in0.0 mm 0.00 in0.0 mm 0.00 in0.0 mm
10:45 AM 89.0°F31.7°C -23.7°F-30.9°C 1% 4.0 mph N6.4 kmh N 10.0 mph16.1 kmh 210.44 in7126.3 mb 0.00 in0.0 mm 0.00 in0.0 mm 0.00 in0.0 mm
10:50 AM 90.0°F32.2°C -23.2°F-30.7°C 1% 2.0 mph SSE3.2 kmh SSE 10.0 mph16.1 kmh 210.44 in7126.3 mb 0.00 in0.0 mm 0.00 in0.0 mm 0.00 in0.0 mm
10:55 AM 90.0°F32.2°C -23.2°F-30.7°C 1% 3.0 mph N4.8 kmh N 10.0 mph16.1 kmh 210.44 in7126.3 mb 0.00 in0.0 mm 0.00 in0.0 mm 0.00 in0.0 mm
11:00 AM 89.0°F31.7°C -23.7°F-30.9°C 1% Calm Calm 10.0 mph16.1 kmh 210.44 in7126.3 mb 0.00 in0.0 mm 0.00 in0.0 mm 0.00 in0.0 mm
11:05 AM 89.0°F31.7°C -23.7°F-30.9°C 1% 1.0 mph W1.6 kmh W 10.0 mph16.1 kmh 210.44 in7126.3 mb 0.00 in0.0 mm 0.00 in0.0 mm 0.00 in0.0 mm
11:10 AM 90.0°F32.2°C -23.2°F-30.7°C 1% 5.0 mph SW8.0 kmh SW 10.0 mph16.1 kmh 210.44 in7126.3 mb 0.00 in0.0 mm 0.00 in0.0 mm 0.00 in0.0 mm
11:15 AM 90.0°F32.2°C -23.2°F-30.7°C 1% 6.0 mph W9.7 kmh W 10.0 mph16.1 kmh 210.44 in7126.3 mb 0.00 in0.0 mm 0.00 in0.0 mm 0.00 in0.0 mm
11:20 AM 89.0°F31.7°C -23.7°F-30.9°C 1% 4.0 mph S6.4 kmh S 10.0 mph16.1 kmh 210.44 in7126.3 mb 0.00 in0.0 mm 0.00 in0.0 mm 0.00 in0.0 mm
11:25 AM 90.0°F32.2°C -23.2°F-30.7°C 1% Calm Calm 10.0 mph16.1 kmh 210.44 in7126.3 mb 0.00 in0.0 mm 0.00 in0.0 mm 0.00 in0.0 mm
11:30 AM 90.0°F32.2°C -23.2°F-30.7°C 1% 1.0 mph NW1.6 kmh NW 10.0 mph16.1 kmh 210.44 in7126.3 mb 0.00 in0.0 mm 0.00 in0.0 mm 0.00 in0.0 mm
11:35 AM 91.0°F32.8°C -22.6°F-30.3°C 1% 4.0 mph S6.4 kmh S 10.0 mph16.1 kmh 210.42 in7125.6 mb 0.00 in0.0 mm 0.00 in0.0 mm 0.00 in0.0 mm
11:40 AM 91.0°F32.8°C -22.6°F-30.3°C 1% 5.0 mph NW8.0 kmh NW 10.0 mph16.1 kmh 210.42 in7125.6 mb 0.00 in0.0 mm 0.00 in0.0 mm 0.00 in0.0 mm
11:45 AM 90.0°F32.2°C -23.2°F-30.7°C 1% 3.0 mph NW4.8 kmh NW 10.0 mph16.1 kmh 210.43 in7126.0 mb 0.00 in0.0 mm 0.00 in0.0 mm 0.00 in0.0 mm
11:50 AM 91.0°F32.8°C -22.6°F-30.3°C 1% 1.0 mph NW1.6 kmh NW 10.0 mph16.1 kmh 210.43 in7126.0 mb 0.00 in0.0 mm 0.00 in0.0 mm 0.00 in0.0 mm
11:55 AM 91.0°F32.8°C -22.6°F-30.3°C 1% 6.0 mph SSW9.7 kmh SSW 10.0 mph16.1 kmh 210.42 in7125.6 mb 0.00 in0.0 mm 0.00 in0.0 mm 0.00 in0.0 mm
12:00 PM 92.0°F33.3°C -22.0°F-30.0°C 1% 3.0 mph N4.8 kmh N 10.0 mph16.1 kmh 210.42 in7125.6 mb 0.00 in0.0 mm 0.00 in0.0 mm 0.00 in0.0 mm
12:05 PM 93.0°F33.9°C -21.4°F-29.7°C 1% 2.0 mph SW3.2 kmh SW 10.0 mph16.1 kmh 210.41 in7125.3 mb 0.00 in0.0 mm 0.00 in0.0 mm 0.00 in0.0 mm
12:10 PM 92.0°F33.3°C -22.0°F-30.0°C 1% 3.0 mph NW4.8 kmh NW 10.0 mph16.1 kmh 210.41 in7125.3 mb 0.00 in0.0 mm 0.00 in0.0 mm 0.00 in0.0 mm
12:15 PM 91.0°F32.8°C -22.6°F-30.3°C 1% Calm Calm 10.0 mph16.1 kmh 210.42 in7125.6 mb 0.00 in0.0 mm 0.00 in0.0 mm 0.00 in0.0 mm
12:20 PM 91.0°F32.8°C -22.6°F-30.3°C 1% 5.0 mph SSW8.0 kmh SSW 10.0 mph16.1 kmh 210.42 in7125.6 mb 0.00 in0.0 mm 0.00 in0.0 mm 0.00 in0.0 mm
12:25 PM 92.0°F33.3°C -22.0°F-30.0°C 1% 6.0 mph NW9.7 kmh NW 10.0 mph16.1 kmh 210.41 in7125.3 mb 0.00 in0.0 mm 0.00 in0.0 mm 0.00 in0.0 mm
12:30 PM 93.0°F33.9°C -21.4°F-29.7°C 1% 4.0 mph N6.4 kmh N 10.0 mph16.1 kmh 210.41 in7125.3 mb 0.00 in0.0 mm 0.00 in0.0 mm 0.00 in0.0 mm
12:35 PM 92.0°F33.3°C -22.0°F-30.0°C 1% 6.0 mph N9.7 kmh N 10.0 mph16.1 kmh 210.41 in7125.3 mb 0.00 in0.0 mm 0.00 in0.0 mm 0.00 in0.0 mm
12:40 PM 90.0°F32.2°C -23.2°F-30.7°C 1% 9.0 mph NW14.5 kmh NW 10.0 mph16.1 kmh 210.41 in7125.3 mb 0.00 in0.0 mm 0.00 in0.0 mm 0.00 in0.0 mm
12:45 PM 90.0°F32.2°C -23.2°F-30.7°C 1% 6.0 mph NW9.7 kmh NW 10.0 mph16.1 kmh 210.41 in7125.3 mb 0.00 in0.0 mm 0.00 in0.0 mm 0.00 in0.0 mm
12:50 PM 92.0°F33.3°C -22.0°F-30.0°C 1% 2.0 mph N3.2 kmh N 10.0 mph16.1 kmh 210.41 in7125.3 mb 0.00 in0.0 mm 0.00 in0.0 mm 0.00 in0.0 mm
12:55 PM 91.0°F32.8°C -22.6°F-30.3°C 1% 2.0 mph N3.2 kmh N 10.0 mph16.1 kmh 210.40 in7125.0 mb 0.00 in0.0 mm 0.00 in0.0 mm 0.00 in0.0 mm
01:00 PM 90.0°F32.2°C -23.2°F-30.7°C 1% 3.0 mph NW4.8 kmh NW 10.0 mph16.1 kmh 210.40 in7125.0 mb 0.00 in0.0 mm 0.00 in0.0 mm 0.00 in0.0 mm
01:05 PM 90.0°F32.2°C -23.2°F-30.7°C 1% 7.0 mph WNW11.3 kmh WNW 10.0 mph16.1 kmh 210.41 in7125.3 mb 0.00 in0.0 mm 0.00 in0.0 mm 0.00 in0.0 mm
01:10 PM 91.0°F32.8°C -22.6°F-30.3°C 1% 3.0 mph W4.8 kmh W 11.0 mph17.7 kmh 210.41 in7125.3 mb 0.00 in0.0 mm 0.00 in0.0 mm 0.00 in0.0 mm
01:15 PM 91.0°F32.8°C -22.6°F-30.3°C 1% 2.0 mph NW3.2 kmh NW 11.0 mph17.7 kmh 210.39 in7124.6 mb 0.00 in0.0 mm 0.00 in0.0 mm 0.00 in0.0 mm
01:20 PM 92.0°F33.3°C -22.0°F-30.0°C 1% 4.0 mph W6.4 kmh W 11.0 mph17.7 kmh 210.39 in7124.6 mb 0.00 in0.0 mm 0.00 in0.0 mm 0.00 in0.0 mm
01:25 PM 92.0°F33.3°C -22.0°F-30.0°C 1% 6.0 mph SW9.7 kmh SW 11.0 mph17.7 kmh 210.39 in7124.6 mb 0.00 in0.0 mm 0.00 in0.0 mm 0.00 in0.0 mm
01:30 PM 92.0°F33.3°C -22.0°F-30.0°C 1% 4.0 mph NW6.4 kmh NW 11.0 mph17.7 kmh 210.39 in7124.6 mb 0.00 in0.0 mm 0.00 in0.0 mm 0.00 in0.0 mm
01:35 PM 93.0°F33.9°C -21.4°F-29.7°C 1% 5.0 mph S8.0 kmh S 11.0 mph17.7 kmh 210.39 in7124.6 mb 0.00 in0.0 mm 0.00 in0.0 mm 0.00 in0.0 mm
01:40 PM 94.0°F34.4°C -20.8°F-29.3°C 1% 6.0 mph S9.7 kmh S 11.0 mph17.7 kmh 210.39 in7124.6 mb 0.00 in0.0 mm 0.00 in0.0 mm 0.00 in0.0 mm
01:45 PM 94.0°F34.4°C -20.8°F-29.3°C 1% 4.0 mph NNW6.4 kmh NNW 11.0 mph17.7 kmh 210.37 in7123.9 mb 0.00 in0.0 mm 0.00 in0.0 mm 0.00 in0.0 mm
01:50 PM 95.0°F35.0°C -20.2°F-29.0°C 1% 3.0 mph SE4.8 kmh SE 11.0 mph17.7 kmh 210.37 in7123.9 mb 0.00 in0.0 mm 0.00 in0.0 mm 0.00 in0.0 mm
01:55 PM 94.0°F34.4°C -20.8°F-29.3°C 1% 3.0 mph S4.8 kmh S 11.0 mph17.7 kmh 210.37 in7123.9 mb 0.00 in0.0 mm 0.00 in0.0 mm 0.00 in0.0 mm
02:00 PM 94.0°F34.4°C -20.8°F-29.3°C 1% 4.0 mph SE6.4 kmh SE 11.0 mph17.7 kmh 210.37 in7123.9 mb 0.00 in0.0 mm 0.00 in0.0 mm 0.00 in0.0 mm
02:05 PM 94.0°F34.4°C -20.8°F-29.3°C 1% 3.0 mph W4.8 kmh W 11.0 mph17.7 kmh 210.37 in7123.9 mb 0.00 in0.0 mm 0.00 in0.0 mm 0.00 in0.0 mm
02:10 PM 94.0°F34.4°C -20.8°F-29.3°C 1% 6.0 mph W9.7 kmh W 11.0 mph17.7 kmh 210.37 in7123.9 mb 0.00 in0.0 mm 0.00 in0.0 mm 0.00 in0.0 mm
02:15 PM 95.0°F35.0°C -20.2°F-29.0°C 1% 1.0 mph N1.6 kmh N 11.0 mph17.7 kmh 210.37 in7123.9 mb 0.00 in0.0 mm 0.00 in0.0 mm 0.00 in0.0 mm
02:20 PM 95.0°F35.0°C -20.2°F-29.0°C 1% 4.0 mph NW6.4 kmh NW 11.0 mph17.7 kmh 210.37 in7123.9 mb 0.00 in0.0 mm 0.00 in0.0 mm 0.00 in0.0 mm
02:25 PM 96.0°F35.6°C -19.6°F-28.7°C 1% 1.0 mph NE1.6 kmh NE 11.0 mph17.7 kmh 210.35 in7123.3 mb 0.00 in0.0 mm 0.00 in0.0 mm 0.00 in0.0 mm
02:30 PM 96.0°F35.6°C -19.6°F-28.7°C 1% 2.0 mph SW3.2 kmh SW 11.0 mph17.7 kmh 210.35 in7123.3 mb 0.00 in0.0 mm 0.00 in0.0 mm 0.00 in0.0 mm
02:35 PM 95.0°F35.0°C -20.2°F-29.0°C 1% 2.0 mph SW3.2 kmh SW 11.0 mph17.7 kmh 210.35 in7123.3 mb 0.00 in0.0 mm 0.00 in0.0 mm 0.00 in0.0 mm
02:40 PM 94.0°F34.4°C -20.8°F-29.3°C 1% 1.0 mph SW1.6 kmh SW 11.0 mph17.7 kmh 210.35 in7123.3 mb 0.00 in0.0 mm 0.00 in0.0 mm 0.00 in0.0 mm
02:45 PM 94.0°F34.4°C -20.8°F-29.3°C 1% 4.0 mph SSW6.4 kmh SSW 11.0 mph17.7 kmh 210.36 in7123.6 mb 0.00 in0.0 mm 0.00 in0.0 mm 0.00 in0.0 mm
02:50 PM 93.0°F33.9°C -21.4°F-29.7°C 1% 3.0 mph N4.8 kmh N 11.0 mph17.7 kmh 210.36 in7123.6 mb 0.00 in0.0 mm 0.00 in0.0 mm 0.00 in0.0 mm
02:55 PM 92.0°F33.3°C -22.0°F-30.0°C 1% 3.0 mph W4.8 kmh W 11.0 mph17.7 kmh 210.37 in7123.9 mb 0.00 in0.0 mm 0.00 in0.0 mm 0.00 in0.0 mm
03:00 PM 92.0°F33.3°C -22.0°F-30.0°C 1% 4.0 mph NW6.4 kmh NW 11.0 mph17.7 kmh 210.37 in7123.9 mb 0.00 in0.0 mm 0.00 in0.0 mm 0.00 in0.0 mm
03:05 PM 93.0°F33.9°C -21.4°F-29.7°C 1% 1.0 mph SW1.6 kmh SW 11.0 mph17.7 kmh 210.37 in7123.9 mb 0.00 in0.0 mm 0.00 in0.0 mm 0.00 in0.0 mm
03:10 PM 93.0°F33.9°C -21.4°F-29.7°C 1% 6.0 mph SSW9.7 kmh SSW 11.0 mph17.7 kmh 210.37 in7123.9 mb 0.00 in0.0 mm 0.00 in0.0 mm 0.00 in0.0 mm
03:15 PM 94.0°F34.4°C -20.8°F-29.3°C 1% 8.0 mph SSW12.9 kmh SSW 11.0 mph17.7 kmh 210.36 in7123.6 mb 0.00 in0.0 mm 0.00 in0.0 mm 0.00 in0.0 mm
03:20 PM 93.0°F33.9°C -21.4°F-29.7°C 1% 3.0 mph ESE4.8 kmh ESE 12.0 mph19.3 kmh 210.36 in7123.6 mb 0.00 in0.0 mm 0.00 in0.0 mm 0.00 in0.0 mm
03:25 PM 93.0°F33.9°C -21.4°F-29.7°C 1% 5.0 mph SSW8.0 kmh SSW 12.0 mph19.3 kmh 210.37 in7123.9 mb 0.00 in0.0 mm 0.00 in0.0 mm 0.00 in0.0 mm
03:30 PM 93.0°F33.9°C -21.4°F-29.7°C 1% 5.0 mph SSW8.0 kmh SSW 12.0 mph19.3 kmh 210.37 in7123.9 mb 0.00 in0.0 mm 0.00 in0.0 mm 0.00 in0.0 mm
03:35 PM 92.0°F33.3°C -22.0°F-30.0°C 1% 7.0 mph SSW11.3 kmh SSW 12.0 mph19.3 kmh 210.37 in7123.9 mb 0.00 in0.0 mm 0.00 in0.0 mm 0.00 in0.0 mm
03:40 PM 92.0°F33.3°C -22.0°F-30.0°C 1% 4.0 mph S6.4 kmh S 12.0 mph19.3 kmh 210.37 in7123.9 mb 0.00 in0.0 mm 0.00 in0.0 mm 0.00 in0.0 mm
03:45 PM 92.0°F33.3°C -22.0°F-30.0°C 1% 4.0 mph SW6.4 kmh SW 12.0 mph19.3 kmh 210.37 in7123.9 mb 0.00 in0.0 mm 0.00 in0.0 mm 0.00 in0.0 mm
03:50 PM 93.0°F33.9°C -21.4°F-29.7°C 1% 8.0 mph SSW12.9 kmh SSW 12.0 mph19.3 kmh 210.37 in7123.9 mb 0.00 in0.0 mm 0.00 in0.0 mm 0.00 in0.0 mm
03:55 PM 92.0°F33.3°C -22.0°F-30.0°C 1% 4.0 mph W6.4 kmh W 12.0 mph19.3 kmh 210.37 in7123.9 mb 0.00 in0.0 mm 0.00 in0.0 mm 0.00 in0.0 mm
04:00 PM 92.0°F33.3°C -22.0°F-30.0°C 1% 7.0 mph SSE11.3 kmh SSE 12.0 mph19.3 kmh 210.37 in7123.9 mb 0.00 in0.0 mm 0.00 in0.0 mm 0.00 in0.0 mm
04:05 PM 92.0°F33.3°C -22.0°F-30.0°C 1% 2.0 mph S3.2 kmh S 12.0 mph19.3 kmh 210.36 in7123.6 mb 0.00 in0.0 mm 0.00 in0.0 mm 0.00 in0.0 mm
04:10 PM 92.0°F33.3°C -22.0°F-30.0°C 1% 3.0 mph NW4.8 kmh NW 12.0 mph19.3 kmh 210.36 in7123.6 mb 0.00 in0.0 mm 0.00 in0.0 mm 0.00 in0.0 mm
04:15 PM 92.0°F33.3°C -22.0°F-30.0°C 1% 6.0 mph SW9.7 kmh SW 12.0 mph19.3 kmh 210.36 in7123.6 mb 0.00 in0.0 mm 0.00 in0.0 mm 0.00 in0.0 mm
04:20 PM 92.0°F33.3°C -22.0°F-30.0°C 1% 7.0 mph S11.3 kmh S 13.0 mph20.9 kmh 210.36 in7123.6 mb 0.00 in0.0 mm 0.00 in0.0 mm 0.00 in0.0 mm
04:25 PM 91.0°F32.8°C -22.6°F-30.3°C 1% 6.0 mph SSE9.7 kmh SSE 13.0 mph20.9 kmh 210.37 in7123.9 mb 0.00 in0.0 mm 0.00 in0.0 mm 0.00 in0.0 mm
04:30 PM 89.0°F31.7°C -23.7°F-30.9°C 1% 7.0 mph S11.3 kmh S 13.0 mph20.9 kmh 210.37 in7123.9 mb 0.00 in0.0 mm 0.00 in0.0 mm 0.00 in0.0 mm
04:35 PM 89.0°F31.7°C -23.7°F-30.9°C 1% 7.0 mph SW11.3 kmh SW 13.0 mph20.9 kmh 210.38 in7124.3 mb 0.00 in0.0 mm 0.00 in0.0 mm 0.00 in0.0 mm
04:40 PM 89.0°F31.7°C -23.7°F-30.9°C 1% 4.0 mph S6.4 kmh S 13.0 mph20.9 kmh 210.38 in7124.3 mb 0.00 in0.0 mm 0.00 in0.0 mm 0.00 in0.0 mm
04:45 PM 89.0°F31.7°C -23.7°F-30.9°C 1% 7.0 mph S11.3 kmh S 13.0 mph20.9 kmh 210.38 in7124.3 mb 0.00 in0.0 mm 0.00 in0.0 mm 0.00 in0.0 mm
04:50 PM 89.0°F31.7°C -23.7°F-30.9°C 1% 4.0 mph SE6.4 kmh SE 13.0 mph20.9 kmh 210.38 in7124.3 mb 0.00 in0.0 mm 0.00 in0.0 mm 0.00 in0.0 mm
04:55 PM 90.0°F32.2°C -23.2°F-30.7°C 1% 4.0 mph SSE6.4 kmh SSE 13.0 mph20.9 kmh 210.37 in7123.9 mb 0.00 in0.0 mm 0.00 in0.0 mm 0.00 in0.0 mm
05:00 PM 91.0°F32.8°C -22.6°F-30.3°C 1% 3.0 mph SE4.8 kmh SE 13.0 mph20.9 kmh 210.37 in7123.9 mb 0.00 in0.0 mm 0.00 in0.0 mm 0.00 in0.0 mm
05:05 PM 91.0°F32.8°C -22.6°F-30.3°C 1% 2.0 mph S3.2 kmh S 13.0 mph20.9 kmh 210.37 in7123.9 mb 0.00 in0.0 mm 0.00 in0.0 mm 0.00 in0.0 mm
05:10 PM 90.0°F32.2°C -23.2°F-30.7°C 1% 9.0 mph SSW14.5 kmh SSW 13.0 mph20.9 kmh 210.37 in7123.9 mb 0.00 in0.0 mm 0.00 in0.0 mm 0.00 in0.0 mm
05:15 PM 90.0°F32.2°C -23.2°F-30.7°C 1% 9.0 mph SSW14.5 kmh SSW 13.0 mph20.9 kmh 210.38 in7124.3 mb 0.00 in0.0 mm 0.00 in0.0 mm 0.00 in0.0 mm
05:20 PM 90.0°F32.2°C -23.2°F-30.7°C 1% Calm Calm 13.0 mph20.9 kmh 210.38 in7124.3 mb 0.00 in0.0 mm 0.00 in0.0 mm 0.00 in0.0 mm
05:25 PM 90.0°F32.2°C -23.2°F-30.7°C 1% 4.0 mph SSE6.4 kmh SSE 13.0 mph20.9 kmh 210.38 in7124.3 mb 0.00 in0.0 mm 0.00 in0.0 mm 0.00 in0.0 mm
05:30 PM 90.0°F32.2°C -23.2°F-30.7°C 1% Calm Calm 13.0 mph20.9 kmh 210.38 in7124.3 mb 0.00 in0.0 mm 0.00 in0.0 mm 0.00 in0.0 mm
05:35 PM 81.0°F27.2°C -28.5°F-33.6°C 1% 17.0 mph N27.4 kmh N 19.0 mph30.6 kmh 210.42 in7125.6 mb 0.07 in1.8 mm 0.84 in21.3 mm 0.07 in1.8 mm
05:40 PM 78.0°F25.6°C -30.3°F-34.6°C 1% 7.0 mph NW11.3 kmh NW 22.0 mph35.4 kmh 210.42 in7125.6 mb 0.10 in2.5 mm 0.36 in9.1 mm 0.10 in2.5 mm
05:45 PM 76.0°F24.4°C -31.5°F-35.3°C 1% 14.0 mph N22.5 kmh N 22.0 mph35.4 kmh 210.47 in7127.3 mb 0.11 in2.8 mm 0.12 in3.0 mm 0.11 in2.8 mm
05:50 PM 75.0°F23.9°C -32.1°F-35.6°C 1% 8.0 mph NNE12.9 kmh NNE 22.0 mph35.4 kmh 210.47 in7127.3 mb 0.16 in4.1 mm 0.60 in15.2 mm 0.16 in4.1 mm
05:55 PM 73.0°F22.8°C -33.3°F-36.3°C 1% 13.0 mph N20.9 kmh N 24.0 mph38.6 kmh 210.49 in7128.0 mb 0.36 in9.1 mm 2.40 in61.0 mm 0.36 in9.1 mm
06:00 PM 73.0°F22.8°C -33.3°F-36.3°C 1% 9.0 mph W14.5 kmh W 28.0 mph45.1 kmh 210.49 in7128.0 mb 0.62 in15.7 mm 0.28 in7.1 mm 0.62 in15.7 mm
06:05 PM 72.0°F22.2°C -33.9°F-36.6°C 1% 6.0 mph S9.7 kmh S 28.0 mph45.1 kmh 210.48 in7127.7 mb 0.73 in18.5 mm 1.32 in33.5 mm 0.73 in18.5 mm
06:10 PM 72.0°F22.2°C -33.9°F-36.6°C 1% 10.0 mph SW16.1 kmh SW 28.0 mph45.1 kmh 210.48 in7127.7 mb 0.81 in20.6 mm 0.96 in24.4 mm 0.81 in20.6 mm
06:15 PM 71.0°F21.7°C -34.5°F-36.9°C 1% 9.0 mph WSW14.5 kmh WSW 28.0 mph45.1 kmh 210.47 in7127.3 mb 0.85 in21.6 mm 0.48 in12.2 mm 0.85 in21.6 mm
06:20 PM 71.0°F21.7°C -34.5°F-36.9°C 1% 4.0 mph W6.4 kmh W 28.0 mph45.1 kmh 210.47 in7127.3 mb 0.86 in21.8 mm 0.12 in3.0 mm 0.86 in21.8 mm
06:25 PM 71.0°F21.7°C -34.5°F-36.9°C 1% 1.0 mph NW1.6 kmh NW 28.0 mph45.1 kmh 210.46 in7127.0 mb 0.86 in21.8 mm 0.00 in0.0 mm 0.86 in21.8 mm
06:30 PM 72.0°F22.2°C -33.9°F-36.6°C 1% 4.0 mph S6.4 kmh S 28.0 mph45.1 kmh 210.46 in7127.0 mb 0.86 in21.8 mm 0.00 in0.0 mm 0.86 in21.8 mm
06:35 PM 72.0°F22.2°C -33.9°F-36.6°C 1% 2.0 mph SW3.2 kmh SW 28.0 mph45.1 kmh 210.45 in7126.7 mb 0.86 in21.8 mm 0.00 in0.0 mm 0.86 in21.8 mm
06:40 PM 73.0°F22.8°C -33.3°F-36.3°C 1% 3.0 mph WNW4.8 kmh WNW 28.0 mph45.1 kmh 210.45 in7126.7 mb 0.86 in21.8 mm 0.00 in0.0 mm 0.86 in21.8 mm
06:45 PM 74.0°F23.3°C -32.7°F-35.9°C 1% 1.0 mph W1.6 kmh W 28.0 mph45.1 kmh 210.43 in7126.0 mb 0.86 in21.8 mm 0.00 in0.0 mm 0.86 in21.8 mm
06:50 PM 75.0°F23.9°C -32.1°F-35.6°C 1% 1.0 mph W1.6 kmh W 28.0 mph45.1 kmh 210.43 in7126.0 mb 0.86 in21.8 mm 0.00 in0.0 mm 0.86 in21.8 mm
06:55 PM 76.0°F24.4°C -31.5°F-35.3°C 1% Calm Calm 28.0 mph45.1 kmh 210.41 in7125.3 mb 0.86 in21.8 mm 0.00 in0.0 mm 0.86 in21.8 mm
07:00 PM 76.0°F24.4°C -31.5°F-35.3°C 1% 3.0 mph N4.8 kmh N 28.0 mph45.1 kmh 210.41 in7125.3 mb 0.86 in21.8 mm 0.00 in0.0 mm 0.86 in21.8 mm
07:05 PM 75.0°F23.9°C -32.1°F-35.6°C 1% 3.0 mph NW4.8 kmh NW 28.0 mph45.1 kmh 210.42 in7125.6 mb 0.86 in21.8 mm 0.00 in0.0 mm 0.86 in21.8 mm
07:10 PM 75.0°F23.9°C -32.1°F-35.6°C 1% 4.0 mph NW6.4 kmh NW 28.0 mph45.1 kmh 210.42 in7125.6 mb 0.86 in21.8 mm 0.00 in0.0 mm 0.86 in21.8 mm
07:15 PM 75.0°F23.9°C -32.1°F-35.6°C 1% 1.0 mph NW1.6 kmh NW 28.0 mph45.1 kmh 210.41 in7125.3 mb 0.86 in21.8 mm 0.00 in0.0 mm 0.86 in21.8 mm
07:20 PM 75.0°F23.9°C -32.1°F-35.6°C 1% Calm Calm 28.0 mph45.1 kmh 210.41 in7125.3 mb 0.86 in21.8 mm 0.00 in0.0 mm 0.86 in21.8 mm
07:25 PM 75.0°F23.9°C -32.1°F-35.6°C 1% Calm Calm 28.0 mph45.1 kmh 210.41 in7125.3 mb 0.86 in21.8 mm 0.00 in0.0 mm 0.86 in21.8 mm
07:30 PM 74.0°F23.3°C -32.7°F-35.9°C 1% Calm Calm 28.0 mph45.1 kmh 210.41 in7125.3 mb 0.86 in21.8 mm 0.00 in0.0 mm 0.86 in21.8 mm
07:35 PM 74.0°F23.3°C -32.7°F-35.9°C 1% 1.0 mph NW1.6 kmh NW 28.0 mph45.1 kmh 210.41 in7125.3 mb 0.86 in21.8 mm 0.00 in0.0 mm 0.86 in21.8 mm
07:40 PM 75.0°F23.9°C -32.1°F-35.6°C 1% 2.0 mph NW3.2 kmh NW 28.0 mph45.1 kmh 210.41 in7125.3 mb 0.86 in21.8 mm 0.00 in0.0 mm 0.86 in21.8 mm
07:45 PM 75.0°F23.9°C -32.1°F-35.6°C 1% Calm Calm 28.0 mph45.1 kmh 210.41 in7125.3 mb 0.86 in21.8 mm 0.00 in0.0 mm 0.86 in21.8 mm
07:50 PM 74.0°F23.3°C -32.7°F-35.9°C 1% Calm Calm 28.0 mph45.1 kmh 210.41 in7125.3 mb 0.86 in21.8 mm 0.00 in0.0 mm 0.86 in21.8 mm
07:55 PM 74.0°F23.3°C -32.7°F-35.9°C 1% 2.0 mph NW3.2 kmh NW 28.0 mph45.1 kmh 210.41 in7125.3 mb 0.86 in21.8 mm 0.00 in0.0 mm 0.86 in21.8 mm
08:00 PM 74.0°F23.3°C -32.7°F-35.9°C 1% Calm Calm 28.0 mph45.1 kmh 210.41 in7125.3 mb 0.86 in21.8 mm 0.00 in0.0 mm 0.86 in21.8 mm
08:05 PM 74.0°F23.3°C -32.7°F-35.9°C 1% Calm Calm 28.0 mph45.1 kmh 210.41 in7125.3 mb 0.86 in21.8 mm 0.00 in0.0 mm 0.86 in21.8 mm
08:10 PM 73.0°F22.8°C -33.3°F-36.3°C 1% Calm Calm 28.0 mph45.1 kmh 210.41 in7125.3 mb 0.86 in21.8 mm 0.00 in0.0 mm 0.86 in21.8 mm
08:15 PM 73.0°F22.8°C -33.3°F-36.3°C 1% Calm Calm 28.0 mph45.1 kmh 210.42 in7125.6 mb 0.86 in21.8 mm 0.00 in0.0 mm 0.86 in21.8 mm
08:20 PM 73.0°F22.8°C -33.3°F-36.3°C 1% Calm Calm 28.0 mph45.1 kmh 210.42 in7125.6 mb 0.86 in21.8 mm 0.00 in0.0 mm 0.86 in21.8 mm
08:25 PM 73.0°F22.8°C -33.3°F-36.3°C 1% Calm Calm 28.0 mph45.1 kmh 210.42 in7125.6 mb 0.86 in21.8 mm 0.00 in0.0 mm 0.86 in21.8 mm
08:30 PM 72.0°F22.2°C -33.9°F-36.6°C 1% Calm Calm 28.0 mph45.1 kmh 210.42 in7125.6 mb 0.86 in21.8 mm 0.00 in0.0 mm 0.86 in21.8 mm
08:35 PM 72.0°F22.2°C -33.9°F-36.6°C 1% 3.0 mph SSW4.8 kmh SSW 28.0 mph45.1 kmh 210.43 in7126.0 mb 0.86 in21.8 mm 0.00 in0.0 mm 0.86 in21.8 mm
08:40 PM 73.0°F22.8°C -33.3°F-36.3°C 1% Calm Calm 28.0 mph45.1 kmh 210.43 in7126.0 mb 0.86 in21.8 mm 0.00 in0.0 mm 0.86 in21.8 mm
08:45 PM 72.0°F22.2°C -33.9°F-36.6°C 1% 2.0 mph SSW3.2 kmh SSW 28.0 mph45.1 kmh 210.43 in7126.0 mb 0.86 in21.8 mm 0.00 in0.0 mm 0.86 in21.8 mm
08:50 PM 72.0°F22.2°C -33.9°F-36.6°C 1% 1.0 mph S1.6 kmh S 28.0 mph45.1 kmh 210.43 in7126.0 mb 0.86 in21.8 mm 0.00 in0.0 mm 0.86 in21.8 mm
08:55 PM 72.0°F22.2°C -33.9°F-36.6°C 1% Calm Calm 28.0 mph45.1 kmh 210.44 in7126.3 mb 0.86 in21.8 mm 0.00 in0.0 mm 0.86 in21.8 mm
09:00 PM 72.0°F22.2°C -33.9°F-36.6°C 1% Calm Calm 28.0 mph45.1 kmh 210.44 in7126.3 mb 0.86 in21.8 mm 0.00 in0.0 mm 0.86 in21.8 mm
09:05 PM 72.0°F22.2°C -33.9°F-36.6°C 1% Calm Calm 28.0 mph45.1 kmh 210.44 in7126.3 mb 0.86 in21.8 mm 0.00 in0.0 mm 0.86 in21.8 mm
09:10 PM 72.0°F22.2°C -33.9°F-36.6°C 1% Calm Calm 28.0 mph45.1 kmh 210.44 in7126.3 mb 0.86 in21.8 mm 0.00 in0.0 mm 0.86 in21.8 mm
09:15 PM 72.0°F22.2°C -33.9°F-36.6°C 1% Calm Calm 28.0 mph45.1 kmh 210.44 in7126.3 mb 0.86 in21.8 mm 0.00 in0.0 mm 0.86 in21.8 mm
09:20 PM 72.0°F22.2°C -33.9°F-36.6°C 1% Calm Calm 28.0 mph45.1 kmh 210.44 in7126.3 mb 0.86 in21.8 mm 0.00 in0.0 mm 0.86 in21.8 mm
09:25 PM 72.0°F22.2°C -33.9°F-36.6°C 1% Calm Calm 28.0 mph45.1 kmh 210.44 in7126.3 mb 0.86 in21.8 mm 0.00 in0.0 mm 0.86 in21.8 mm
09:30 PM 73.0°F22.8°C -33.3°F-36.3°C 1% Calm Calm 28.0 mph45.1 kmh 210.44 in7126.3 mb 0.86 in21.8 mm 0.00 in0.0 mm 0.86 in21.8 mm
09:35 PM 73.0°F22.8°C -33.3°F-36.3°C 1% Calm Calm 28.0 mph45.1 kmh 210.44 in7126.3 mb 0.86 in21.8 mm 0.00 in0.0 mm 0.86 in21.8 mm
09:40 PM 73.0°F22.8°C -33.3°F-36.3°C 1% Calm Calm 28.0 mph45.1 kmh 210.44 in7126.3 mb 0.86 in21.8 mm 0.00 in0.0 mm 0.86 in21.8 mm
09:45 PM 73.0°F22.8°C -33.3°F-36.3°C 1% Calm Calm 28.0 mph45.1 kmh 210.44 in7126.3 mb 0.86 in21.8 mm 0.00 in0.0 mm 0.86 in21.8 mm
09:50 PM 73.0°F22.8°C -33.3°F-36.3°C 1% Calm Calm 28.0 mph45.1 kmh 210.44 in7126.3 mb 0.86 in21.8 mm 0.00 in0.0 mm 0.86 in21.8 mm
09:55 PM 73.0°F22.8°C -33.3°F-36.3°C 1% 1.0 mph SW1.6 kmh SW 28.0 mph45.1 kmh 210.43 in7126.0 mb 0.86 in21.8 mm 0.00 in0.0 mm 0.86 in21.8 mm
10:00 PM 73.0°F22.8°C -33.3°F-36.3°C 1% Calm Calm 28.0 mph45.1 kmh 210.43 in7126.0 mb 0.86 in21.8 mm 0.00 in0.0 mm 0.86 in21.8 mm
10:05 PM 73.0°F22.8°C -33.3°F-36.3°C 1% Calm Calm 28.0 mph45.1 kmh 210.43 in7126.0 mb 0.86 in21.8 mm 0.00 in0.0 mm 0.86 in21.8 mm
10:10 PM 73.0°F22.8°C -33.3°F-36.3°C 1% Calm Calm 28.0 mph45.1 kmh 210.43 in7126.0 mb 0.86 in21.8 mm 0.00 in0.0 mm 0.86 in21.8 mm
10:15 PM 73.0°F22.8°C -33.3°F-36.3°C 1% Calm Calm 28.0 mph45.1 kmh 210.44 in7126.3 mb 0.86 in21.8 mm 0.00 in0.0 mm 0.86 in21.8 mm
10:20 PM 73.0°F22.8°C -33.3°F-36.3°C 1% Calm Calm 28.0 mph45.1 kmh 210.44 in7126.3 mb 0.86 in21.8 mm 0.00 in0.0 mm 0.86 in21.8 mm
10:25 PM 73.0°F22.8°C -33.3°F-36.3°C 1% Calm Calm 28.0 mph45.1 kmh 210.44 in7126.3 mb 0.86 in21.8 mm 0.00 in0.0 mm 0.86 in21.8 mm
10:30 PM 73.0°F22.8°C -33.3°F-36.3°C 1% Calm Calm 28.0 mph45.1 kmh 210.44 in7126.3 mb 0.86 in21.8 mm 0.00 in0.0 mm 0.86 in21.8 mm
10:35 PM 73.0°F22.8°C -33.3°F-36.3°C 1% Calm Calm 28.0 mph45.1 kmh 210.43 in7126.0 mb 0.86 in21.8 mm 0.00 in0.0 mm 0.86 in21.8 mm
10:40 PM 73.0°F22.8°C -33.3°F-36.3°C 1% Calm Calm 28.0 mph45.1 kmh 210.43 in7126.0 mb 0.86 in21.8 mm 0.00 in0.0 mm 0.86 in21.8 mm
10:45 PM 73.0°F22.8°C -33.3°F-36.3°C 1% Calm Calm 28.0 mph45.1 kmh 210.44 in7126.3 mb 0.86 in21.8 mm 0.00 in0.0 mm 0.86 in21.8 mm
10:50 PM 73.0°F22.8°C -33.3°F-36.3°C 1% 1.0 mph W1.6 kmh W 28.0 mph45.1 kmh 210.44 in7126.3 mb 0.86 in21.8 mm 0.00 in0.0 mm 0.86 in21.8 mm
10:55 PM 73.0°F22.8°C -33.3°F-36.3°C 1% 1.0 mph W1.6 kmh W 28.0 mph45.1 kmh 210.44 in7126.3 mb 0.86 in21.8 mm 0.00 in0.0 mm 0.86 in21.8 mm
11:00 PM 73.0°F22.8°C -33.3°F-36.3°C 1% 2.0 mph W3.2 kmh W 2.0 mph3.2 kmh 210.44 in7126.3 mb 0.00 in0.0 mm 0.00 in0.0 mm 0.86 in21.8 mm
11:05 PM 73.0°F22.8°C -33.3°F-36.3°C 1% 2.0 mph NW3.2 kmh NW 5.0 mph8.0 kmh 210.44 in7126.3 mb 0.00 in0.0 mm 0.00 in0.0 mm 0.86 in21.8 mm
11:10 PM 73.0°F22.8°C -33.3°F-36.3°C 1% 4.0 mph NW6.4 kmh NW 5.0 mph8.0 kmh 210.44 in7126.3 mb 0.00 in0.0 mm 0.00 in0.0 mm 0.86 in21.8 mm
11:15 PM 74.0°F23.3°C -32.7°F-35.9°C 1% 1.0 mph WNW1.6 kmh WNW 6.0 mph9.7 kmh 210.43 in7126.0 mb 0.00 in0.0 mm 0.00 in0.0 mm 0.86 in21.8 mm
11:20 PM 74.0°F23.3°C -32.7°F-35.9°C 1% Calm Calm 6.0 mph9.7 kmh 210.43 in7126.0 mb 0.00 in0.0 mm 0.00 in0.0 mm 0.86 in21.8 mm
11:25 PM 74.0°F23.3°C -32.7°F-35.9°C 1% 1.0 mph W1.6 kmh W 6.0 mph9.7 kmh 210.43 in7126.0 mb 0.00 in0.0 mm 0.00 in0.0 mm 0.86 in21.8 mm
11:30 PM 73.0°F22.8°C -33.3°F-36.3°C 1% 1.0 mph W1.6 kmh W 6.0 mph9.7 kmh 210.43 in7126.0 mb 0.00 in0.0 mm 0.00 in0.0 mm 0.86 in21.8 mm
11:35 PM 73.0°F22.8°C -33.3°F-36.3°C 1% 1.0 mph W1.6 kmh W 6.0 mph9.7 kmh 210.44 in7126.3 mb 0.00 in0.0 mm 0.00 in0.0 mm 0.86 in21.8 mm
11:40 PM 73.0°F22.8°C -33.3°F-36.3°C 1% 1.0 mph W1.6 kmh W 6.0 mph9.7 kmh 210.44 in7126.3 mb 0.00 in0.0 mm 0.00 in0.0 mm 0.86 in21.8 mm
11:45 PM 73.0°F22.8°C -33.3°F-36.3°C 1% 1.0 mph W1.6 kmh W 6.0 mph9.7 kmh 210.44 in7126.3 mb 0.00 in0.0 mm 0.00 in0.0 mm 0.86 in21.8 mm
11:50 PM 72.0°F22.2°C -33.9°F-36.6°C 1% Calm Calm 6.0 mph9.7 kmh 210.44 in7126.3 mb 0.00 in0.0 mm 0.00 in0.0 mm 0.86 in21.8 mm
11:55 PM 72.0°F22.2°C -33.9°F-36.6°C 1% 1.0 mph W1.6 kmh W 6.0 mph9.7 kmh 210.45 in7126.7 mb 0.00 in0.0 mm 0.00 in0.0 mm 0.86 in21.8 mm